Time,TemperatureF,DewpointF,PressureIn,WindDirection,WindDirectionDegrees,WindSpeedMPH,WindSpeedGustMPH,Humidity,HourlyPrecipIn,Conditions,Clouds,dailyrainin,SoftwareType,DateUTC
2013-01-17 00:16:00,53.2,51.2,29.98,East,90,0.0,-999.0,93,-99.99,,,0.00,Acu-Link.com,2013-01-17 05:16:00,
2013-01-17 00:31:00,53.6,51.6,29.97,East,90,0.0,-999.0,93,-99.99,,,0.00,Acu-Link.com,2013-01-17 05:31:00,
2013-01-17 00:47:00,54.7,53.0,29.97,ESE,112,0.0,-999.0,94,-99.99,,,0.00,Acu-Link.com,2013-01-17 05:47:00,
2013-01-17 01:02:00,55.9,54.5,29.97,SSE,157,0.0,-999.0,95,-99.99,,,0.00,Acu-Link.com,2013-01-17 06:02:00,
2013-01-17 01:18:00,55.9,54.5,29.97,SSE,157,0.0,-999.0,95,-99.99,,,0.00,Acu-Link.com,2013-01-17 06:18:00,
2013-01-17 01:33:00,55.6,54.2,29.97,SSE,157,0.0,-999.0,95,-99.99,,,0.00,Acu-Link.com,2013-01-17 06:33:00,
2013-01-17 01:48:00,55.6,54.2,29.97,SSE,157,0.0,-999.0,95,-99.99,,,0.00,Acu-Link.com,2013-01-17 06:48:00,
2013-01-17 02:04:00,55.8,54.4,29.97,SSE,157,0.0,-999.0,95,-99.99,,,0.00,Acu-Link.com,2013-01-17 07:04:00,
2013-01-17 02:19:00,56.1,54.7,29.97,SSE,157,0.0,-999.0,95,-99.99,,,0.00,Acu-Link.com,2013-01-17 07:19:00,
2013-01-17 02:34:00,56.1,54.7,29.97,SSE,157,0.0,-999.0,95,-99.99,,,0.00,Acu-Link.com,2013-01-17 07:34:00,
2013-01-17 02:49:00,57.2,55.8,29.97,South,180,0.0,-999.0,95,-99.99,,,0.00,Acu-Link.com,2013-01-17 07:49:00,
2013-01-17 03:05:00,57.0,55.6,29.97,South,180,0.0,-999.0,95,-99.99,,,0.00,Acu-Link.com,2013-01-17 08:05:00,
2013-01-17 03:21:00,57.0,55.6,29.97,South,180,0.0,-999.0,95,-99.99,,,0.00,Acu-Link.com,2013-01-17 08:21:00,
2013-01-17 03:36:00,57.0,55.6,29.96,South,180,0.0,-999.0,95,-99.99,,,0.00,Acu-Link.com,2013-01-17 08:36:00,
2013-01-17 03:51:00,57.0,55.6,29.96,South,180,0.0,-999.0,95,-99.99,,,0.00,Acu-Link.com,2013-01-17 08:51:00,
2013-01-17 04:07:00,56.8,55.4,29.96,South,180,0.0,-999.0,95,-99.99,,,0.00,Acu-Link.com,2013-01-17 09:07:00,
2013-01-17 04:22:00,56.8,55.4,29.96,South,180,0.0,-999.0,95,-99.99,,,0.00,Acu-Link.com,2013-01-17 09:22:00,
2013-01-17 04:37:00,56.8,55.4,29.95,South,180,0.0,-999.0,95,-99.99,,,0.00,Acu-Link.com,2013-01-17 09:37:00,
2013-01-17 04:53:00,56.7,55.3,29.95,South,180,0.0,-999.0,95,-99.99,,,0.00,Acu-Link.com,2013-01-17 09:53:00,
2013-01-17 05:08:00,56.3,54.9,29.95,South,180,0.0,-999.0,95,-99.99,,,0.00,Acu-Link.com,2013-01-17 10:08:00,
2013-01-17 05:23:00,55.6,54.2,29.95,South,180,0.0,-999.0,95,-99.99,,,0.00,Acu-Link.com,2013-01-17 10:23:00,
2013-01-17 05:39:00,55.2,53.8,29.95,South,180,0.0,-999.0,95,-99.99,,,0.00,Acu-Link.com,2013-01-17 10:39:00,
2013-01-17 05:54:00,54.7,53.3,29.94,South,180,0.0,-999.0,95,-99.99,,,0.00,Acu-Link.com,2013-01-17 10:54:00,
2013-01-17 06:10:00,54.7,53.3,29.95,South,180,0.0,-999.0,95,-99.99,,,0.00,Acu-Link.com,2013-01-17 11:10:00,
2013-01-17 06:25:00,54.5,53.1,29.95,South,180,0.0,-999.0,95,-99.99,,,0.00,Acu-Link.com,2013-01-17 11:25:00,
2013-01-17 06:41:00,54.3,52.9,29.96,SSE,157,0.0,-999.0,95,-99.99,,,0.00,Acu-Link.com,2013-01-17 11:41:00,
2013-01-17 06:56:00,54.1,52.7,29.96,SSE,157,0.0,-999.0,95,-99.99,,,0.00,Acu-Link.com,2013-01-17 11:56:00,
2013-01-17 07:12:00,54.1,52.7,29.96,SSE,157,0.0,-999.0,95,-99.99,,,0.00,Acu-Link.com,2013-01-17 12:12:00,
2013-01-17 07:27:00,57.4,56.3,29.97,SSE,157,1.1,-999.0,96,-99.99,,,0.00,Acu-Link.com,2013-01-17 12:27:00,
2013-01-17 07:42:00,59.0,57.9,29.97,South,180,1.7,-999.0,96,-99.99,,,0.00,Acu-Link.com,2013-01-17 12:42:00,
2013-01-17 07:58:00,59.9,58.8,29.97,WSW,247,2.2,-999.0,96,-99.99,,,0.00,Acu-Link.com,2013-01-17 12:58:00,
2013-01-17 08:13:00,61.0,59.8,29.98,WSW,247,1.7,-999.0,96,-99.99,,,0.00,Acu-Link.com,2013-01-17 13:13:00,
2013-01-17 08:28:00,61.5,60.3,29.98,ESE,112,1.7,-999.0,96,-99.99,,,0.00,Acu-Link.com,2013-01-17 13:28:00,
2013-01-17 08:43:00,61.9,60.7,29.99,WNW,292,1.7,-999.0,96,-99.99,,,0.00,Acu-Link.com,2013-01-17 13:43:00,
2013-01-17 08:59:00,62.6,61.4,29.99,SW,225,1.1,-999.0,96,-99.99,,,0.00,Acu-Link.com,2013-01-17 13:59:00,
2013-01-17 09:14:00,63.1,61.0,29.99,WNW,292,1.7,-999.0,93,-99.99,,,0.00,Acu-Link.com,2013-01-17 14:14:00,
2013-01-17 09:29:00,63.9,61.2,29.99,SW,225,1.7,-999.0,91,-99.99,,,0.00,Acu-Link.com,2013-01-17 14:29:00,
2013-01-17 09:45:00,64.0,60.7,29.99,West,270,2.2,-999.0,89,-99.99,,,0.00,Acu-Link.com,2013-01-17 14:45:00,
2013-01-17 10:00:00,65.5,61.5,29.98,WSW,247,2.2,-999.0,87,-99.99,,,0.00,Acu-Link.com,2013-01-17 15:00:00,
2013-01-17 10:15:00,66.6,61.6,29.97,WNW,292,3.2,-999.0,84,-99.99,,,0.00,Acu-Link.com,2013-01-17 15:15:00,
2013-01-17 10:31:00,68.2,62.1,29.97,SW,225,3.7,-999.0,81,-99.99,,,0.00,Acu-Link.com,2013-01-17 15:31:00,
2013-01-17 10:46:00,69.6,62.8,29.96,West,270,2.7,-999.0,79,-99.99,,,0.00,Acu-Link.com,2013-01-17 15:46:00,
2013-01-17 11:01:00,68.4,62.0,29.95,WSW,247,2.7,-999.0,80,-99.99,,,0.00,Acu-Link.com,2013-01-17 16:01:00,
2013-01-17 11:17:00,70.9,62.6,29.95,NW,315,2.2,-999.0,75,-99.99,,,0.00,Acu-Link.com,2013-01-17 16:17:00,
2013-01-17 11:32:00,70.7,62.8,29.94,West,270,1.1,-999.0,76,-99.99,,,0.00,Acu-Link.com,2013-01-17 16:32:00,
2013-01-17 11:48:00,71.4,63.1,29.93,SW,225,1.1,-999.0,75,-99.99,,,0.00,Acu-Link.com,2013-01-17 16:48:00,
2013-01-17 12:03:00,70.5,62.6,29.92,NW,315,4.2,-999.0,76,-99.99,,,0.00,Acu-Link.com,2013-01-17 17:03:00,
2013-01-17 12:18:00,68.2,61.8,29.92,NE,45,4.7,-999.0,80,-99.99,,,0.00,Acu-Link.com,2013-01-17 17:18:00,
2013-01-17 12:34:00,67.1,61.1,29.91,East,90,2.7,-999.0,81,-99.99,,,0.00,Acu-Link.com,2013-01-17 17:34:00,
2013-01-17 12:49:00,66.2,60.5,29.90,East,90,3.7,-999.0,82,-99.99,,,0.00,Acu-Link.com,2013-01-17 17:49:00,
2013-01-17 13:04:00,65.7,59.7,29.91,ENE,67,5.3,-999.0,81,-99.99,,,0.00,Acu-Link.com,2013-01-17 18:04:00,
2013-01-17 13:19:00,62.2,57.0,29.90,East,90,4.7,-999.0,83,-99.99,,,0.00,Acu-Link.com,2013-01-17 18:19:00,
2013-01-17 13:35:00,59.2,55.0,29.90,ENE,67,9.4,-999.0,86,-99.99,,,0.00,Acu-Link.com,2013-01-17 18:35:00,
2013-01-17 13:50:00,57.9,53.7,29.90,ESE,112,4.2,-999.0,86,-99.99,,,0.00,Acu-Link.com,2013-01-17 18:50:00,
2013-01-17 14:05:00,56.5,52.7,29.90,NE,45,4.7,-999.0,87,-99.99,,,0.00,Acu-Link.com,2013-01-17 19:05:00,
2013-01-17 14:21:00,55.4,52.2,29.89,NE,45,7.3,-999.0,89,-99.99,,,0.00,Acu-Link.com,2013-01-17 19:21:00,
2013-01-17 14:36:00,54.5,51.6,29.90,NE,45,15.5,-999.0,90,-99.99,,,0.00,Acu-Link.com,2013-01-17 19:36:00,
2013-01-17 14:52:00,54.0,51.1,29.90,East,90,7.8,-999.0,90,-99.99,,,0.00,Acu-Link.com,2013-01-17 19:52:00,
2013-01-17 15:07:00,53.6,51.0,29.90,East,90,6.3,-999.0,91,-99.99,,,0.00,Acu-Link.com,2013-01-17 20:07:00,
2013-01-17 15:22:00,53.4,50.8,29.89,ENE,67,8.3,-999.0,91,-99.99,,,0.00,Acu-Link.com,2013-01-17 20:22:00,
2013-01-17 15:38:00,52.9,50.3,29.89,East,90,11.4,-999.0,91,-99.99,,,0.00,Acu-Link.com,2013-01-17 20:38:00,
2013-01-17 15:53:00,52.7,50.1,29.89,East,90,9.9,-999.0,91,-99.99,,,0.00,Acu-Link.com,2013-01-17 20:53:00,
2013-01-17 16:08:00,52.3,50.0,29.89,East,90,7.3,-999.0,92,-99.99,,,0.00,Acu-Link.com,2013-01-17 21:08:00,
2013-01-17 16:23:00,51.3,49.1,29.90,East,90,10.4,-999.0,92,-99.99,,,0.00,Acu-Link.com,2013-01-17 21:23:00,
2013-01-17 16:38:00,50.5,48.3,29.89,NNE,22,7.3,-999.0,92,-99.99,,,0.00,Acu-Link.com,2013-01-17 21:38:00,
2013-01-17 16:54:00,50.2,48.3,29.87,NNE,22,7.3,-999.0,93,-99.99,,,0.00,Acu-Link.com,2013-01-17 21:54:00,
2013-01-17 17:09:00,49.8,47.9,29.88,ESE,112,4.2,-999.0,93,-99.99,,,0.00,Acu-Link.com,2013-01-17 22:09:00,
2013-01-17 17:24:00,49.3,47.4,29.87,NE,45,6.8,-999.0,93,-99.99,,,0.00,Acu-Link.com,2013-01-17 22:24:00,
2013-01-17 17:39:00,49.3,47.4,29.86,NE,45,17.1,-999.0,93,-99.99,,,0.00,Acu-Link.com,2013-01-17 22:39:00,
2013-01-17 17:55:00,49.3,47.4,29.87,NNW,337,8.9,-999.0,93,-99.99,,,0.00,Acu-Link.com,2013-01-17 22:55:00,
2013-01-17 18:10:00,48.7,46.8,29.87,ENE,67,8.3,-999.0,93,-99.99,,,0.00,Acu-Link.com,2013-01-17 23:10:00,
2013-01-17 18:25:00,48.6,46.7,29.86,North,0,15.5,-999.0,93,-99.99,,,0.00,Acu-Link.com,2013-01-17 23:25:00,
2013-01-17 18:40:00,48.6,46.7,29.85,East,90,9.9,-999.0,93,-99.99,,,0.00,Acu-Link.com,2013-01-17 23:40:00,
2013-01-17 18:55:00,48.2,46.3,29.85,NE,45,9.4,-999.0,93,-99.99,,,0.00,Acu-Link.com,2013-01-17 23:55:00,
2013-01-17 19:11:00,47.8,45.9,29.84,East,90,8.3,-999.0,93,-99.99,,,0.00,Acu-Link.com,2013-01-18 00:11:00,
2013-01-17 19:26:00,47.5,45.6,29.83,East,90,3.7,-999.0,93,-99.99,,,0.00,Acu-Link.com,2013-01-18 00:26:00,
2013-01-17 19:41:00,47.5,45.6,29.80,ESE,112,14.5,-999.0,93,-99.99,,,0.00,Acu-Link.com,2013-01-18 00:41:00,
2013-01-17 19:57:00,47.3,46.2,29.83,ENE,67,14.5,-999.0,96,-99.99,,,0.00,Acu-Link.com,2013-01-18 00:57:00,
2013-01-17 20:12:00,47.1,46.0,29.82,East,90,4.2,-999.0,96,-99.99,,,0.00,Acu-Link.com,2013-01-18 01:12:00,
2013-01-17 20:27:00,47.1,46.0,29.80,NNE,22,3.2,-999.0,96,-99.99,,,0.00,Acu-Link.com,2013-01-18 01:27:00,
2013-01-17 20:42:00,46.9,45.8,29.81,ESE,112,8.9,-999.0,96,-99.99,,,0.00,Acu-Link.com,2013-01-18 01:42:00,
2013-01-17 20:58:00,46.9,45.8,29.81,East,90,6.3,-999.0,96,-99.99,,,0.00,Acu-Link.com,2013-01-18 01:58:00,
2013-01-17 21:13:00,46.9,45.8,29.80,ESE,112,8.9,-999.0,96,-99.99,,,0.00,Acu-Link.com,2013-01-18 02:13:00,
2013-01-17 21:28:00,46.9,45.8,29.80,ENE,67,7.8,-999.0,96,-99.99,,,0.00,Acu-Link.com,2013-01-18 02:28:00,
2013-01-17 21:43:00,46.9,45.8,29.84,NNE,22,6.8,-999.0,96,-99.99,,,0.00,Acu-Link.com,2013-01-18 02:43:00,
2013-01-17 21:59:00,46.4,45.3,29.85,NNE,22,5.3,-999.0,96,-99.99,,,0.00,Acu-Link.com,2013-01-18 02:59:00,
2013-01-17 22:15:00,45.7,44.6,29.85,NE,45,11.9,-999.0,96,-99.99,,,0.00,Acu-Link.com,2013-01-18 03:15:00,
2013-01-17 22:30:00,45.3,44.2,29.86,NNW,337,5.3,-999.0,96,-99.99,,,0.00,Acu-Link.com,2013-01-18 03:30:00,
2013-01-17 22:46:00,44.8,43.7,29.85,NNE,22,7.8,-999.0,96,-99.99,,,0.00,Acu-Link.com,2013-01-18 03:46:00,
2013-01-17 23:01:00,44.4,43.3,29.86,NNE,22,7.3,-999.0,96,-99.99,,,0.00,Acu-Link.com,2013-01-18 04:01:00,
2013-01-17 23:16:00,43.5,42.4,29.88,NNE,22,8.3,-999.0,96,-99.99,,,0.00,Acu-Link.com,2013-01-18 04:16:00,
2013-01-17 23:32:00,42.6,41.5,29.91,NNW,337,7.3,-999.0,96,-99.99,,,0.00,Acu-Link.com,2013-01-18 04:32:00,
2013-01-17 23:47:00,42.1,41.0,29.90,NE,45,4.7,-999.0,96,-99.99,,,0.00,Acu-Link.com,2013-01-18 04:47:00,